sensor_id;sensor_type;location;lat;lon;timestamp;temperature;humidity
7846;DHT22;3968;51.424;6.788;2023-07-16T00:01:03;22.30;99.90
7846;DHT22;3968;51.424;6.788;2023-07-16T00:03:29;22.30;99.90
7846;DHT22;3968;51.424;6.788;2023-07-16T00:05:55;22.30;99.90
7846;DHT22;3968;51.424;6.788;2023-07-16T00:08:21;22.20;99.90
7846;DHT22;3968;51.424;6.788;2023-07-16T00:10:47;22.20;99.90
7846;DHT22;3968;51.424;6.788;2023-07-16T00:13:12;22.20;99.90
7846;DHT22;3968;51.424;6.788;2023-07-16T00:15:38;22.20;99.90
7846;DHT22;3968;51.424;6.788;2023-07-16T00:18:04;22.20;99.90
7846;DHT22;3968;51.424;6.788;2023-07-16T00:20:31;22.20;99.90
7846;DHT22;3968;51.424;6.788;2023-07-16T00:22:57;22.10;99.90
7846;DHT22;3968;51.424;6.788;2023-07-16T00:25:23;22.00;99.90
7846;DHT22;3968;51.424;6.788;2023-07-16T00:27:49;21.90;99.90
7846;DHT22;3968;51.424;6.788;2023-07-16T00:30:14;22.00;99.90
7846;DHT22;3968;51.424;6.788;2023-07-16T00:32:40;22.00;99.90
7846;DHT22;3968;51.424;6.788;2023-07-16T00:35:06;22.00;99.90
7846;DHT22;3968;51.424;6.788;2023-07-16T00:37:32;22.00;99.90
7846;DHT22;3968;51.424;6.788;2023-07-16T00:39:58;22.00;99.90
7846;DHT22;3968;51.424;6.788;2023-07-16T00:42:24;22.00;99.90
7846;DHT22;3968;51.424;6.788;2023-07-16T00:44:49;22.00;99.90
7846;DHT22;3968;51.424;6.788;2023-07-16T00:47:15;22.00;99.90
7846;DHT22;3968;51.424;6.788;2023-07-16T00:49:41;22.00;99.90
7846;DHT22;3968;51.424;6.788;2023-07-16T00:52:13;22.00;99.90
7846;DHT22;3968;51.424;6.788;2023-07-16T00:54:39;22.00;99.90
7846;DHT22;3968;51.424;6.788;2023-07-16T00:57:05;22.00;99.90
7846;DHT22;3968;51.424;6.788;2023-07-16T00:59:31;22.00;99.90
7846;DHT22;3968;51.424;6.788;2023-07-16T01:01:56;22.00;99.90
7846;DHT22;3968;51.424;6.788;2023-07-16T01:04:22;22.00;99.90
7846;DHT22;3968;51.424;6.788;2023-07-16T01:06:51;22.10;99.90
7846;DHT22;3968;51.424;6.788;2023-07-16T01:09:19;22.10;99.90
7846;DHT22;3968;51.424;6.788;2023-07-16T01:11:48;22.00;99.90
7846;DHT22;3968;51.424;6.788;2023-07-16T01:14:16;22.00;99.90
7846;DHT22;3968;51.424;6.788;2023-07-16T01:16:42;22.10;99.90
7846;DHT22;3968;51.424;6.788;2023-07-16T01:19:09;22.00;99.90
7846;DHT22;3968;51.424;6.788;2023-07-16T01:29:41;22.00;99.90
7846;DHT22;3968;51.424;6.788;2023-07-16T01:32:09;22.00;99.90
7846;DHT22;3968;51.424;6.788;2023-07-16T01:34:38;22.00;99.90
7846;DHT22;3968;51.424;6.788;2023-07-16T01:37:04;22.00;99.90
7846;DHT22;3968;51.424;6.788;2023-07-16T01:39:31;22.00;99.90
7846;DHT22;3968;51.424;6.788;2023-07-16T01:41:58;21.90;99.90
7846;DHT22;3968;51.424;6.788;2023-07-16T01:44:24;21.90;99.90
7846;DHT22;3968;51.424;6.788;2023-07-16T01:47:13;21.90;99.90
7846;DHT22;3968;51.424;6.788;2023-07-16T01:49:39;21.90;99.90
7846;DHT22;3968;51.424;6.788;2023-07-16T01:52:07;21.90;99.90
7846;DHT22;3968;51.424;6.788;2023-07-16T01:54:33;21.90;99.90
7846;DHT22;3968;51.424;6.788;2023-07-16T01:56:58;21.90;99.90
7846;DHT22;3968;51.424;6.788;2023-07-16T01:59:24;21.90;99.90
7846;DHT22;3968;51.424;6.788;2023-07-16T02:01:49;21.80;99.90
7846;DHT22;3968;51.424;6.788;2023-07-16T02:04:15;21.80;99.90
7846;DHT22;3968;51.424;6.788;2023-07-16T02:06:41;21.80;99.90
7846;DHT22;3968;51.424;6.788;2023-07-16T02:09:06;21.80;99.90
7846;DHT22;3968;51.424;6.788;2023-07-16T02:11:32;21.80;99.90
7846;DHT22;3968;51.424;6.788;2023-07-16T02:13:57;21.80;99.90
7846;DHT22;3968;51.424;6.788;2023-07-16T02:16:23;21.80;99.90
7846;DHT22;3968;51.424;6.788;2023-07-16T02:18:48;21.70;99.90
7846;DHT22;3968;51.424;6.788;2023-07-16T02:21:14;21.70;99.90
7846;DHT22;3968;51.424;6.788;2023-07-16T02:23:40;21.70;99.90
7846;DHT22;3968;51.424;6.788;2023-07-16T02:26:05;21.70;99.90
7846;DHT22;3968;51.424;6.788;2023-07-16T02:28:31;21.70;99.90
7846;DHT22;3968;51.424;6.788;2023-07-16T02:30:58;21.70;99.90
7846;DHT22;3968;51.424;6.788;2023-07-16T02:33:23;21.70;99.90
7846;DHT22;3968;51.424;6.788;2023-07-16T02:35:50;21.70;99.90
7846;DHT22;3968;51.424;6.788;2023-07-16T02:38:17;21.70;99.90
7846;DHT22;3968;51.424;6.788;2023-07-16T02:40:46;21.70;99.90
7846;DHT22;3968;51.424;6.788;2023-07-16T02:43:12;21.70;99.90
7846;DHT22;3968;51.424;6.788;2023-07-16T02:45:38;21.70;99.90
7846;DHT22;3968;51.424;6.788;2023-07-16T02:48:05;21.70;99.90
7846;DHT22;3968;51.424;6.788;2023-07-16T02:50:34;21.70;99.90
7846;DHT22;3968;51.424;6.788;2023-07-16T02:53:00;21.70;99.90
7846;DHT22;3968;51.424;6.788;2023-07-16T02:55:26;21.80;99.90
7846;DHT22;3968;51.424;6.788;2023-07-16T02:57:51;21.70;99.90
7846;DHT22;3968;51.424;6.788;2023-07-16T03:00:17;21.70;99.90
7846;DHT22;3968;51.424;6.788;2023-07-16T03:02:42;21.70;99.90
7846;DHT22;3968;51.424;6.788;2023-07-16T03:05:08;21.70;99.90
7846;DHT22;3968;51.424;6.788;2023-07-16T03:07:34;21.70;99.90
7846;DHT22;3968;51.424;6.788;2023-07-16T03:10:00;21.70;99.90
7846;DHT22;3968;51.424;6.788;2023-07-16T03:12:25;21.70;99.90
7846;DHT22;3968;51.424;6.788;2023-07-16T03:14:51;21.70;99.90
7846;DHT22;3968;51.424;6.788;2023-07-16T03:17:22;21.70;99.90
7846;DHT22;3968;51.424;6.788;2023-07-16T03:19:48;21.60;99.90
7846;DHT22;3968;51.424;6.788;2023-07-16T03:22:14;21.60;99.90
7846;DHT22;3968;51.424;6.788;2023-07-16T03:24:39;21.60;99.90
7846;DHT22;3968;51.424;6.788;2023-07-16T03:27:06;21.60;99.90
7846;DHT22;3968;51.424;6.788;2023-07-16T03:29:32;21.60;99.90
7846;DHT22;3968;51.424;6.788;2023-07-16T03:31:58;21.50;99.90
7846;DHT22;3968;51.424;6.788;2023-07-16T03:34:24;21.50;99.90
7846;DHT22;3968;51.424;6.788;2023-07-16T03:36:49;21.50;99.90
7846;DHT22;3968;51.424;6.788;2023-07-16T03:39:15;21.50;99.90
7846;DHT22;3968;51.424;6.788;2023-07-16T03:41:40;21.50;99.90
7846;DHT22;3968;51.424;6.788;2023-07-16T03:44:06;21.40;99.90
7846;DHT22;3968;51.424;6.788;2023-07-16T03:46:32;21.50;99.90
7846;DHT22;3968;51.424;6.788;2023-07-16T03:48:57;21.50;99.90
7846;DHT22;3968;51.424;6.788;2023-07-16T03:51:23;21.50;99.90
7846;DHT22;3968;51.424;6.788;2023-07-16T03:53:48;21.50;99.90
7846;DHT22;3968;51.424;6.788;2023-07-16T03:56:14;21.50;99.90
7846;DHT22;3968;51.424;6.788;2023-07-16T03:58:40;21.50;99.90
7846;DHT22;3968;51.424;6.788;2023-07-16T04:01:05;21.50;99.90
7846;DHT22;3968;51.424;6.788;2023-07-16T04:03:31;21.50;99.90
7846;DHT22;3968;51.424;6.788;2023-07-16T04:06:09;21.50;99.90
7846;DHT22;3968;51.424;6.788;2023-07-16T04:08:35;21.50;99.90
7846;DHT22;3968;51.424;6.788;2023-07-16T04:11:02;21.50;99.90
7846;DHT22;3968;51.424;6.788;2023-07-16T04:13:28;21.50;99.90
7846;DHT22;3968;51.424;6.788;2023-07-16T04:15:53;21.50;99.90
7846;DHT22;3968;51.424;6.788;2023-07-16T04:18:21;21.50;99.90
7846;DHT22;3968;51.424;6.788;2023-07-16T04:20:47;21.40;99.90
7846;DHT22;3968;51.424;6.788;2023-07-16T04:23:13;21.40;99.90
7846;DHT22;3968;51.424;6.788;2023-07-16T04:25:38;21.40;99.90
7846;DHT22;3968;51.424;6.788;2023-07-16T04:28:04;21.40;99.90
7846;DHT22;3968;51.424;6.788;2023-07-16T04:30:29;21.50;99.90
7846;DHT22;3968;51.424;6.788;2023-07-16T04:32:55;21.50;99.90
7846;DHT22;3968;51.424;6.788;2023-07-16T04:35:21;21.50;99.90
7846;DHT22;3968;51.424;6.788;2023-07-16T04:37:46;21.50;99.90
7846;DHT22;3968;51.424;6.788;2023-07-16T04:40:12;21.60;99.90
7846;DHT22;3968;51.424;6.788;2023-07-16T04:42:38;21.50;99.90
7846;DHT22;3968;51.424;6.788;2023-07-16T04:45:04;21.60;99.90
7846;DHT22;3968;51.424;6.788;2023-07-16T04:47:31;21.60;99.90
7846;DHT22;3968;51.424;6.788;2023-07-16T04:49:58;21.60;99.90
7846;DHT22;3968;51.424;6.788;2023-07-16T04:52:24;21.70;99.90
7846;DHT22;3968;51.424;6.788;2023-07-16T04:54:50;21.60;99.90
7846;DHT22;3968;51.424;6.788;2023-07-16T04:57:15;21.60;99.90
7846;DHT22;3968;51.424;6.788;2023-07-16T04:59:41;21.70;99.90
7846;DHT22;3968;51.424;6.788;2023-07-16T05:02:07;21.60;99.90
7846;DHT22;3968;51.424;6.788;2023-07-16T05:04:34;21.60;99.90
7846;DHT22;3968;51.424;6.788;2023-07-16T05:07:01;21.70;99.90
7846;DHT22;3968;51.424;6.788;2023-07-16T05:09:27;21.70;99.90
7846;DHT22;3968;51.424;6.788;2023-07-16T05:11:53;21.70;99.90
7846;DHT22;3968;51.424;6.788;2023-07-16T05:14:18;21.70;99.90
7846;DHT22;3968;51.424;6.788;2023-07-16T05:16:44;21.70;99.90
7846;DHT22;3968;51.424;6.788;2023-07-16T05:19:10;21.60;99.90
7846;DHT22;3968;51.424;6.788;2023-07-16T05:21:35;21.70;99.90
7846;DHT22;3968;51.424;6.788;2023-07-16T05:24:01;21.70;99.90
7846;DHT22;3968;51.424;6.788;2023-07-16T05:26:26;21.70;99.90
7846;DHT22;3968;51.424;6.788;2023-07-16T05:28:52;21.70;99.90
7846;DHT22;3968;51.424;6.788;2023-07-16T05:31:18;21.70;99.90
7846;DHT22;3968;51.424;6.788;2023-07-16T05:33:43;21.70;99.90
7846;DHT22;3968;51.424;6.788;2023-07-16T05:36:09;21.70;99.90
7846;DHT22;3968;51.424;6.788;2023-07-16T05:38:34;21.70;99.90
7846;DHT22;3968;51.424;6.788;2023-07-16T05:41:02;21.70;99.90
7846;DHT22;3968;51.424;6.788;2023-07-16T05:43:28;21.70;99.90
7846;DHT22;3968;51.424;6.788;2023-07-16T05:45:54;21.70;99.90
7846;DHT22;3968;51.424;6.788;2023-07-16T05:48:19;21.70;99.90
7846;DHT22;3968;51.424;6.788;2023-07-16T05:50:45;21.60;99.90
7846;DHT22;3968;51.424;6.788;2023-07-16T05:53:11;21.60;99.90
7846;DHT22;3968;51.424;6.788;2023-07-16T05:55:36;21.50;99.90
7846;DHT22;3968;51.424;6.788;2023-07-16T05:58:04;21.50;99.90
7846;DHT22;3968;51.424;6.788;2023-07-16T06:00:30;21.50;99.90
7846;DHT22;3968;51.424;6.788;2023-07-16T06:02:55;21.60;99.90
7846;DHT22;3968;51.424;6.788;2023-07-16T06:05:21;21.50;99.90
7846;DHT22;3968;51.424;6.788;2023-07-16T06:07:47;21.40;99.90
7846;DHT22;3968;51.424;6.788;2023-07-16T06:10:12;21.30;99.90
7846;DHT22;3968;51.424;6.788;2023-07-16T06:12:38;21.40;99.90
7846;DHT22;3968;51.424;6.788;2023-07-16T06:15:04;21.40;99.90
7846;DHT22;3968;51.424;6.788;2023-07-16T06:17:30;21.50;99.90
7846;DHT22;3968;51.424;6.788;2023-07-16T06:19:56;21.60;99.90
7846;DHT22;3968;51.424;6.788;2023-07-16T06:22:23;21.60;99.90
7846;DHT22;3968;51.424;6.788;2023-07-16T06:24:48;21.60;99.90
7846;DHT22;3968;51.424;6.788;2023-07-16T06:27:14;21.70;99.90
7846;DHT22;3968;51.424;6.788;2023-07-16T06:29:39;21.50;99.90
7846;DHT22;3968;51.424;6.788;2023-07-16T06:32:05;21.50;99.90
7846;DHT22;3968;51.424;6.788;2023-07-16T06:34:31;21.60;99.90
7846;DHT22;3968;51.424;6.788;2023-07-16T06:36:57;21.70;99.90
7846;DHT22;3968;51.424;6.788;2023-07-16T06:39:22;21.70;99.90
7846;DHT22;3968;51.424;6.788;2023-07-16T06:41:48;21.70;99.90
7846;DHT22;3968;51.424;6.788;2023-07-16T06:44:14;21.70;99.90
7846;DHT22;3968;51.424;6.788;2023-07-16T06:46:39;21.80;99.90
7846;DHT22;3968;51.424;6.788;2023-07-16T06:49:06;21.80;99.90
7846;DHT22;3968;51.424;6.788;2023-07-16T06:51:32;21.90;99.90
7846;DHT22;3968;51.424;6.788;2023-07-16T06:53:59;21.90;99.90
7846;DHT22;3968;51.424;6.788;2023-07-16T06:56:25;21.90;99.90
7846;DHT22;3968;51.424;6.788;2023-07-16T06:58:50;22.00;99.90
7846;DHT22;3968;51.424;6.788;2023-07-16T07:01:16;22.00;99.90
7846;DHT22;3968;51.424;6.788;2023-07-16T07:03:41;22.00;99.90
7846;DHT22;3968;51.424;6.788;2023-07-16T07:06:07;22.00;99.90
7846;DHT22;3968;51.424;6.788;2023-07-16T07:08:36;21.90;99.90
7846;DHT22;3968;51.424;6.788;2023-07-16T07:11:01;21.90;99.90
7846;DHT22;3968;51.424;6.788;2023-07-16T07:13:27;21.90;99.90
7846;DHT22;3968;51.424;6.788;2023-07-16T07:15:55;21.90;99.90
7846;DHT22;3968;51.424;6.788;2023-07-16T07:18:20;21.90;99.90
7846;DHT22;3968;51.424;6.788;2023-07-16T07:20:46;21.90;99.30
7846;DHT22;3968;51.424;6.788;2023-07-16T07:23:13;21.80;99.90
7846;DHT22;3968;51.424;6.788;2023-07-16T07:25:39;21.80;99.90
7846;DHT22;3968;51.424;6.788;2023-07-16T07:28:04;21.80;99.90
7846;DHT22;3968;51.424;6.788;2023-07-16T07:30:30;21.80;99.90
7846;DHT22;3968;51.424;6.788;2023-07-16T07:32:56;21.80;99.90
7846;DHT22;3968;51.424;6.788;2023-07-16T07:35:21;21.80;99.90
7846;DHT22;3968;51.424;6.788;2023-07-16T07:37:47;21.80;99.60
7846;DHT22;3968;51.424;6.788;2023-07-16T07:40:13;21.80;99.90
7846;DHT22;3968;51.424;6.788;2023-07-16T07:42:39;21.80;99.90
7846;DHT22;3968;51.424;6.788;2023-07-16T07:45:05;21.80;98.70
7846;DHT22;3968;51.424;6.788;2023-07-16T07:47:30;21.80;97.80
7846;DHT22;3968;51.424;6.788;2023-07-16T07:49:56;21.80;95.80
7846;DHT22;3968;51.424;6.788;2023-07-16T07:52:22;21.80;97.10
7846;DHT22;3968;51.424;6.788;2023-07-16T07:54:47;21.70;96.70
7846;DHT22;3968;51.424;6.788;2023-07-16T07:57:14;21.80;97.70
7846;DHT22;3968;51.424;6.788;2023-07-16T07:59:40;21.80;96.40
7846;DHT22;3968;51.424;6.788;2023-07-16T08:02:06;21.80;97.30
7846;DHT22;3968;51.424;6.788;2023-07-16T08:04:31;21.80;94.70
7846;DHT22;3968;51.424;6.788;2023-07-16T08:06:57;21.80;96.50
7846;DHT22;3968;51.424;6.788;2023-07-16T08:09:25;21.70;96.30
7846;DHT22;3968;51.424;6.788;2023-07-16T08:11:51;21.80;98.10
7846;DHT22;3968;51.424;6.788;2023-07-16T08:14:16;21.90;97.20
7846;DHT22;3968;51.424;6.788;2023-07-16T08:16:42;21.90;97.70
7846;DHT22;3968;51.424;6.788;2023-07-16T08:19:08;21.90;95.40
7846;DHT22;3968;51.424;6.788;2023-07-16T08:21:34;22.00;95.30
7846;DHT22;3968;51.424;6.788;2023-07-16T08:24:01;22.10;94.00
7846;DHT22;3968;51.424;6.788;2023-07-16T08:26:27;22.10;93.90
7846;DHT22;3968;51.424;6.788;2023-07-16T08:28:52;22.20;93.60
7846;DHT22;3968;51.424;6.788;2023-07-16T08:31:18;22.30;93.60
7846;DHT22;3968;51.424;6.788;2023-07-16T08:33:44;22.40;91.20
7846;DHT22;3968;51.424;6.788;2023-07-16T08:36:10;22.50;89.00
7846;DHT22;3968;51.424;6.788;2023-07-16T08:38:35;22.50;84.40
7846;DHT22;3968;51.424;6.788;2023-07-16T08:41:01;22.50;83.50
7846;DHT22;3968;51.424;6.788;2023-07-16T08:43:28;22.60;82.10
7846;DHT22;3968;51.424;6.788;2023-07-16T08:45:55;22.60;76.70
7846;DHT22;3968;51.424;6.788;2023-07-16T08:48:21;22.60;78.20
7846;DHT22;3968;51.424;6.788;2023-07-16T08:50:48;22.60;85.00
7846;DHT22;3968;51.424;6.788;2023-07-16T08:53:18;22.60;81.40
7846;DHT22;3968;51.424;6.788;2023-07-16T08:55:47;22.70;79.20
7846;DHT22;3968;51.424;6.788;2023-07-16T08:58:14;22.70;76.40
7846;DHT22;3968;51.424;6.788;2023-07-16T09:00:42;22.60;71.70
7846;DHT22;3968;51.424;6.788;2023-07-16T09:03:12;22.70;73.70
7846;DHT22;3968;51.424;6.788;2023-07-16T09:05:39;22.70;72.70
7846;DHT22;3968;51.424;6.788;2023-07-16T09:08:06;22.70;77.20
7846;DHT22;3968;51.424;6.788;2023-07-16T09:10:32;22.60;70.80
7846;DHT22;3968;51.424;6.788;2023-07-16T09:12:58;22.60;66.30
7846;DHT22;3968;51.424;6.788;2023-07-16T09:15:27;22.60;69.40
7846;DHT22;3968;51.424;6.788;2023-07-16T09:17:54;22.70;65.40
7846;DHT22;3968;51.424;6.788;2023-07-16T09:20:20;22.80;62.80
7846;DHT22;3968;51.424;6.788;2023-07-16T09:22:47;22.80;62.40
7846;DHT22;3968;51.424;6.788;2023-07-16T09:25:13;22.90;63.80
7846;DHT22;3968;51.424;6.788;2023-07-16T09:27:39;22.90;63.20
7846;DHT22;3968;51.424;6.788;2023-07-16T09:30:05;22.90;63.40
7846;DHT22;3968;51.424;6.788;2023-07-16T09:32:36;22.90;63.10
7846;DHT22;3968;51.424;6.788;2023-07-16T09:35:09;23.00;61.20
7846;DHT22;3968;51.424;6.788;2023-07-16T09:37:37;23.10;58.20
7846;DHT22;3968;51.424;6.788;2023-07-16T09:40:05;23.10;55.70
7846;DHT22;3968;51.424;6.788;2023-07-16T09:42:40;23.10;57.40
7846;DHT22;3968;51.424;6.788;2023-07-16T09:45:13;23.00;57.70
7846;DHT22;3968;51.424;6.788;2023-07-16T09:47:42;23.00;61.30
7846;DHT22;3968;51.424;6.788;2023-07-16T09:50:08;23.00;57.60
7846;DHT22;3968;51.424;6.788;2023-07-16T09:52:34;23.00;58.40
7846;DHT22;3968;51.424;6.788;2023-07-16T09:55:02;23.00;61.00
7846;DHT22;3968;51.424;6.788;2023-07-16T09:57:30;23.10;61.20
7846;DHT22;3968;51.424;6.788;2023-07-16T09:59:58;23.10;59.30
7846;DHT22;3968;51.424;6.788;2023-07-16T10:02:25;23.20;55.90
7846;DHT22;3968;51.424;6.788;2023-07-16T10:04:51;23.30;60.00
7846;DHT22;3968;51.424;6.788;2023-07-16T10:07:24;23.40;54.10
7846;DHT22;3968;51.424;6.788;2023-07-16T10:09:55;23.40;51.90
7846;DHT22;3968;51.424;6.788;2023-07-16T10:12:23;23.60;52.20
7846;DHT22;3968;51.424;6.788;2023-07-16T10:14:51;23.60;51.20
7846;DHT22;3968;51.424;6.788;2023-07-16T10:17:24;23.60;50.00
7846;DHT22;3968;51.424;6.788;2023-07-16T10:19:57;23.70;48.30
7846;DHT22;3968;51.424;6.788;2023-07-16T10:22:38;23.50;50.50
7846;DHT22;3968;51.424;6.788;2023-07-16T10:25:25;23.60;51.40
7846;DHT22;3968;51.424;6.788;2023-07-16T10:27:53;23.50;47.00
7846;DHT22;3968;51.424;6.788;2023-07-16T10:30:19;23.50;47.30
7846;DHT22;3968;51.424;6.788;2023-07-16T10:32:45;23.60;50.70
7846;DHT22;3968;51.424;6.788;2023-07-16T10:35:12;23.70;49.80
7846;DHT22;3968;51.424;6.788;2023-07-16T10:37:39;23.70;47.70
7846;DHT22;3968;51.424;6.788;2023-07-16T10:40:09;23.60;52.60
7846;DHT22;3968;51.424;6.788;2023-07-16T10:42:35;23.80;49.20
7846;DHT22;3968;51.424;6.788;2023-07-16T10:45:04;24.00;50.20
7846;DHT22;3968;51.424;6.788;2023-07-16T10:47:30;24.00;49.60
7846;DHT22;3968;51.424;6.788;2023-07-16T10:49:56;24.00;51.20
7846;DHT22;3968;51.424;6.788;2023-07-16T10:52:22;23.90;48.50
7846;DHT22;3968;51.424;6.788;2023-07-16T10:54:49;23.80;48.50
7846;DHT22;3968;51.424;6.788;2023-07-16T10:57:21;23.70;47.30
7846;DHT22;3968;51.424;6.788;2023-07-16T10:59:48;23.70;49.90
7846;DHT22;3968;51.424;6.788;2023-07-16T11:02:16;23.60;50.20
7846;DHT22;3968;51.424;6.788;2023-07-16T11:04:46;23.60;46.80
7846;DHT22;3968;51.424;6.788;2023-07-16T11:07:13;23.50;49.00
7846;DHT22;3968;51.424;6.788;2023-07-16T11:09:53;23.50;47.80
7846;DHT22;3968;51.424;6.788;2023-07-16T11:12:21;23.50;47.90
7846;DHT22;3968;51.424;6.788;2023-07-16T11:14:48;23.40;46.30
7846;DHT22;3968;51.424;6.788;2023-07-16T11:17:15;23.40;49.90
7846;DHT22;3968;51.424;6.788;2023-07-16T11:19:44;23.40;47.90
7846;DHT22;3968;51.424;6.788;2023-07-16T11:22:10;23.40;50.90
7846;DHT22;3968;51.424;6.788;2023-07-16T11:24:42;23.40;46.90
7846;DHT22;3968;51.424;6.788;2023-07-16T11:27:17;23.20;46.20
7846;DHT22;3968;51.424;6.788;2023-07-16T11:29:54;23.10;44.90
7846;DHT22;3968;51.424;6.788;2023-07-16T11:34:55;23.00;48.90
7846;DHT22;3968;51.424;6.788;2023-07-16T11:37:22;23.00;48.60
7846;DHT22;3968;51.424;6.788;2023-07-16T11:39:47;22.90;48.30
7846;DHT22;3968;51.424;6.788;2023-07-16T11:42:17;23.00;49.70
7846;DHT22;3968;51.424;6.788;2023-07-16T11:44:43;23.10;49.70
7846;DHT22;3968;51.424;6.788;2023-07-16T11:47:13;23.10;50.00
7846;DHT22;3968;51.424;6.788;2023-07-16T11:49:39;23.10;51.90
7846;DHT22;3968;51.424;6.788;2023-07-16T11:52:05;23.20;55.20
7846;DHT22;3968;51.424;6.788;2023-07-16T11:54:31;23.30;53.90
7846;DHT22;3968;51.424;6.788;2023-07-16T11:56:56;23.30;53.80
7846;DHT22;3968;51.424;6.788;2023-07-16T11:59:22;23.20;48.50
7846;DHT22;3968;51.424;6.788;2023-07-16T12:01:48;23.20;48.00
7846;DHT22;3968;51.424;6.788;2023-07-16T12:04:15;23.30;49.30
7846;DHT22;3968;51.424;6.788;2023-07-16T12:06:41;23.40;51.90
7846;DHT22;3968;51.424;6.788;2023-07-16T12:09:07;23.40;48.60
7846;DHT22;3968;51.424;6.788;2023-07-16T12:11:33;23.40;51.40
7846;DHT22;3968;51.424;6.788;2023-07-16T12:13:58;23.30;47.30
7846;DHT22;3968;51.424;6.788;2023-07-16T12:16:24;23.30;50.80
7846;DHT22;3968;51.424;6.788;2023-07-16T12:18:49;23.30;51.00
7846;DHT22;3968;51.424;6.788;2023-07-16T12:21:15;23.40;46.90
7846;DHT22;3968;51.424;6.788;2023-07-16T12:23:40;23.50;48.80
7846;DHT22;3968;51.424;6.788;2023-07-16T12:26:06;23.60;47.50
7846;DHT22;3968;51.424;6.788;2023-07-16T12:28:34;23.60;47.70
7846;DHT22;3968;51.424;6.788;2023-07-16T12:30:59;23.50;47.50
7846;DHT22;3968;51.424;6.788;2023-07-16T12:33:25;23.50;50.40
7846;DHT22;3968;51.424;6.788;2023-07-16T12:35:50;23.50;48.90
7846;DHT22;3968;51.424;6.788;2023-07-16T12:38:16;23.40;47.70
7846;DHT22;3968;51.424;6.788;2023-07-16T12:40:42;23.50;43.90
7846;DHT22;3968;51.424;6.788;2023-07-16T12:43:07;23.60;43.30
7846;DHT22;3968;51.424;6.788;2023-07-16T12:45:33;23.70;42.80
7846;DHT22;3968;51.424;6.788;2023-07-16T12:47:58;23.70;43.40
7846;DHT22;3968;51.424;6.788;2023-07-16T12:50:24;23.80;45.80
7846;DHT22;3968;51.424;6.788;2023-07-16T12:52:52;23.80;46.30
7846;DHT22;3968;51.424;6.788;2023-07-16T12:55:17;23.90;43.90
7846;DHT22;3968;51.424;6.788;2023-07-16T12:57:44;23.90;45.40
7846;DHT22;3968;51.424;6.788;2023-07-16T13:00:10;23.90;43.00
7846;DHT22;3968;51.424;6.788;2023-07-16T13:02:36;24.00;42.30
7846;DHT22;3968;51.424;6.788;2023-07-16T13:05:02;24.00;42.80
7846;DHT22;3968;51.424;6.788;2023-07-16T13:07:28;24.10;41.30
7846;DHT22;3968;51.424;6.788;2023-07-16T13:09:54;24.20;43.80
7846;DHT22;3968;51.424;6.788;2023-07-16T13:12:19;24.20;40.70
7846;DHT22;3968;51.424;6.788;2023-07-16T13:14:45;24.20;39.90
7846;DHT22;3968;51.424;6.788;2023-07-16T13:17:11;24.30;38.20
7846;DHT22;3968;51.424;6.788;2023-07-16T13:19:36;24.30;38.60
7846;DHT22;3968;51.424;6.788;2023-07-16T13:22:02;24.30;39.50
7846;DHT22;3968;51.424;6.788;2023-07-16T13:24:28;24.30;39.10
7846;DHT22;3968;51.424;6.788;2023-07-16T13:26:53;24.10;38.30
7846;DHT22;3968;51.424;6.788;2023-07-16T13:29:19;24.20;40.00
7846;DHT22;3968;51.424;6.788;2023-07-16T13:31:45;24.30;39.20
7846;DHT22;3968;51.424;6.788;2023-07-16T13:34:10;24.20;38.50
7846;DHT22;3968;51.424;6.788;2023-07-16T13:36:36;24.20;41.20
7846;DHT22;3968;51.424;6.788;2023-07-16T13:39:01;24.40;40.10
7846;DHT22;3968;51.424;6.788;2023-07-16T13:41:29;24.40;38.70
7846;DHT22;3968;51.424;6.788;2023-07-16T13:43:54;24.30;38.20
7846;DHT22;3968;51.424;6.788;2023-07-16T13:46:20;24.30;37.40
7846;DHT22;3968;51.424;6.788;2023-07-16T13:48:46;24.30;37.60
7846;DHT22;3968;51.424;6.788;2023-07-16T13:51:11;24.30;37.60
7846;DHT22;3968;51.424;6.788;2023-07-16T13:53:37;24.50;38.10
7846;DHT22;3968;51.424;6.788;2023-07-16T13:56:03;24.80;37.30
7846;DHT22;3968;51.424;6.788;2023-07-16T13:58:28;24.90;34.70
7846;DHT22;3968;51.424;6.788;2023-07-16T14:00:54;25.10;30.40
7846;DHT22;3968;51.424;6.788;2023-07-16T14:03:19;25.10;30.60
7846;DHT22;3968;51.424;6.788;2023-07-16T14:05:45;25.10;29.80
7846;DHT22;3968;51.424;6.788;2023-07-16T14:08:10;25.20;27.40
7846;DHT22;3968;51.424;6.788;2023-07-16T14:10:36;25.10;27.30
7846;DHT22;3968;51.424;6.788;2023-07-16T14:13:02;25.10;27.80
7846;DHT22;3968;51.424;6.788;2023-07-16T14:15:27;25.20;27.90
7846;DHT22;3968;51.424;6.788;2023-07-16T14:17:53;25.10;26.40
7846;DHT22;3968;51.424;6.788;2023-07-16T14:20:19;25.10;28.80
7846;DHT22;3968;51.424;6.788;2023-07-16T14:22:44;25.10;28.10
7846;DHT22;3968;51.424;6.788;2023-07-16T14:25:10;25.30;27.20
7846;DHT22;3968;51.424;6.788;2023-07-16T14:27:36;25.50;25.20
7846;DHT22;3968;51.424;6.788;2023-07-16T14:30:01;25.50;25.30
7846;DHT22;3968;51.424;6.788;2023-07-16T14:32:27;25.50;24.90
7846;DHT22;3968;51.424;6.788;2023-07-16T14:34:54;25.40;23.00
7846;DHT22;3968;51.424;6.788;2023-07-16T14:37:19;25.30;21.80
7846;DHT22;3968;51.424;6.788;2023-07-16T14:39:45;25.20;22.10
7846;DHT22;3968;51.424;6.788;2023-07-16T14:42:11;25.30;22.30
7846;DHT22;3968;51.424;6.788;2023-07-16T14:44:36;25.50;21.40
7846;DHT22;3968;51.424;6.788;2023-07-16T14:47:02;25.50;19.70
7846;DHT22;3968;51.424;6.788;2023-07-16T14:49:29;25.50;19.10
7846;DHT22;3968;51.424;6.788;2023-07-16T14:51:55;25.50;19.90
7846;DHT22;3968;51.424;6.788;2023-07-16T14:54:20;25.70;19.20
7846;DHT22;3968;51.424;6.788;2023-07-16T14:56:46;25.60;19.10
7846;DHT22;3968;51.424;6.788;2023-07-16T14:59:11;25.50;19.90
7846;DHT22;3968;51.424;6.788;2023-07-16T15:01:37;25.60;20.40
7846;DHT22;3968;51.424;6.788;2023-07-16T15:04:02;25.50;19.60
7846;DHT22;3968;51.424;6.788;2023-07-16T15:06:30;25.40;19.70
7846;DHT22;3968;51.424;6.788;2023-07-16T15:08:55;25.50;20.10
7846;DHT22;3968;51.424;6.788;2023-07-16T15:11:21;25.60;20.10
7846;DHT22;3968;51.424;6.788;2023-07-16T15:13:46;25.50;19.60
7846;DHT22;3968;51.424;6.788;2023-07-16T15:16:12;25.60;19.90
7846;DHT22;3968;51.424;6.788;2023-07-16T15:18:39;25.50;20.40
7846;DHT22;3968;51.424;6.788;2023-07-16T15:21:04;25.40;21.40
7846;DHT22;3968;51.424;6.788;2023-07-16T15:23:30;25.30;21.90
7846;DHT22;3968;51.424;6.788;2023-07-16T15:26:00;25.20;20.20
7846;DHT22;3968;51.424;6.788;2023-07-16T15:28:25;25.10;21.00
7846;DHT22;3968;51.424;6.788;2023-07-16T15:30:51;25.00;21.90
7846;DHT22;3968;51.424;6.788;2023-07-16T15:33:17;24.90;23.60
7846;DHT22;3968;51.424;6.788;2023-07-16T15:35:42;24.90;22.80
7846;DHT22;3968;51.424;6.788;2023-07-16T15:38:08;25.00;24.30
7846;DHT22;3968;51.424;6.788;2023-07-16T15:40:34;25.10;24.60
7846;DHT22;3968;51.424;6.788;2023-07-16T15:43:00;25.30;25.80
7846;DHT22;3968;51.424;6.788;2023-07-16T15:45:26;25.30;24.90
7846;DHT22;3968;51.424;6.788;2023-07-16T15:47:51;25.40;23.90
7846;DHT22;3968;51.424;6.788;2023-07-16T15:50:24;25.30;24.20
7846;DHT22;3968;51.424;6.788;2023-07-16T15:52:50;25.20;24.80
7846;DHT22;3968;51.424;6.788;2023-07-16T15:55:16;25.10;24.40
7846;DHT22;3968;51.424;6.788;2023-07-16T15:57:42;25.00;24.50
7846;DHT22;3968;51.424;6.788;2023-07-16T16:00:09;24.90;23.80
7846;DHT22;3968;51.424;6.788;2023-07-16T16:02:43;24.90;24.30
7846;DHT22;3968;51.424;6.788;2023-07-16T16:05:09;24.80;25.00
7846;DHT22;3968;51.424;6.788;2023-07-16T16:07:36;24.70;24.70